Time;durP1;ratioP1;P1;durP2;ratioP2;P2;SDS_P1;SDS_P2;PMS_P1;PMS_P2;Temp;Humidity;BMP_temperature;BMP_pressure;BME280_temperature;BME280_humidity;BME280_pressure;Samples;Min_cycle;Max_cycle;Signal;HPM_P1;HPM_P2
2021/05/18 00:00:31;;;;;;;1.1;1;;;;;;;9;100;94849.52;;;;
2021/05/18 00:01:34;;;;;;;1.1;1;;;;;;;9;100;94849.52;;;;
2021/05/18 00:02:34;;;;;;;1.1;1;;;;;;;9;100;94849.52;;;;
2021/05/18 00:03:35;;;;;;;1.1;1;;;;;;;9;100;94849.52;;;;
2021/05/18 00:04:36;;;;;;;1.1;1;;;;;;;9;100;94849.52;;;;
2021/05/18 00:05:36;;;;;;;1.1;1;;;;;;;9;100;94849.52;;;;
2021/05/18 00:06:42;;;;;;;1.1;1;;;;;;;9;100;94849.52;;;;
2021/05/18 00:07:51;;;;;;;1.1;1;;;;;;;9;100;94849.52;;;;
2021/05/18 00:14:04;;;;;;;1.7;0.9;;;;;;;9.15;100;94847.16;;;;
2021/05/18 00:15:05;;;;;;;1.7;0.9;;;;;;;9.15;100;94847.16;;;;
2021/05/18 00:16:10;;;;;;;1.7;0.9;;;;;;;9.15;100;94847.16;;;;
2021/05/18 00:17:11;;;;;;;1.7;0.9;;;;;;;9.15;100;94847.16;;;;
2021/05/18 00:18:12;;;;;;;1.7;0.9;;;;;;;9.15;100;94847.16;;;;
2021/05/18 00:19:13;;;;;;;1.7;0.9;;;;;;;9.15;100;94847.16;;;;
2021/05/18 00:20:14;;;;;;;1.7;0.9;;;;;;;9.15;100;94847.16;;;;
2021/05/18 00:21:18;;;;;;;1.25;1;;;;;;;9.31;100;94855.84;;;;
2021/05/18 00:22:18;;;;;;;1.25;1;;;;;;;9.31;100;94855.84;;;;
2021/05/18 00:23:19;;;;;;;1.25;1;;;;;;;9.31;100;94855.84;;;;
2021/05/18 00:24:20;;;;;;;1.25;1;;;;;;;9.31;100;94855.84;;;;
2021/05/18 00:25:21;;;;;;;1.25;1;;;;;;;9.31;100;94855.84;;;;
2021/05/18 00:26:21;;;;;;;1.25;1;;;;;;;9.31;100;94855.84;;;;
2021/05/18 00:27:23;;;;;;;1.25;1;;;;;;;9.31;100;94855.84;;;;
2021/05/18 00:28:24;;;;;;;1.25;1;;;;;;;9.31;100;94855.84;;;;
2021/05/18 00:29:24;;;;;;;1.25;1;;;;;;;9.31;100;94855.84;;;;
2021/05/18 00:30:25;;;;;;;1.25;1;;;;;;;9.31;100;94855.84;;;;
2021/05/18 00:31:26;;;;;;;1.25;1;;;;;;;9.31;100;94855.84;;;;
2021/05/18 00:32:27;;;;;;;2.25;1.2;;;;;;;9.37;100;94869.26;;;;
2021/05/18 00:33:29;;;;;;;2.25;1.2;;;;;;;9.37;100;94869.26;;;;
2021/05/18 00:34:30;;;;;;;2.25;1.2;;;;;;;9.37;100;94869.26;;;;
2021/05/18 00:35:30;;;;;;;2.25;1.2;;;;;;;9.37;100;94869.26;;;;
2021/05/18 00:36:31;;;;;;;2.25;1.2;;;;;;;9.37;100;94869.26;;;;
2021/05/18 00:37:32;;;;;;;2.25;1.2;;;;;;;9.37;100;94869.26;;;;
2021/05/18 00:38:33;;;;;;;2.25;1.2;;;;;;;9.37;100;94869.26;;;;
2021/05/18 00:39:34;;;;;;;2.25;1.2;;;;;;;9.37;100;94869.26;;;;
2021/05/18 00:40:34;;;;;;;2.25;1.2;;;;;;;9.37;100;94869.26;;;;
2021/05/18 00:41:35;;;;;;;2.25;1.2;;;;;;;9.37;100;94869.26;;;;
2021/05/18 00:42:36;;;;;;;0.9;0.9;;;;;;;9.43;99.87305;94871.54;;;;
2021/05/18 00:43:48;;;;;;;0.9;0.9;;;;;;;9.43;99.87305;94871.54;;;;
2021/05/18 00:44:48;;;;;;;0.9;0.9;;;;;;;9.43;99.87305;94871.54;;;;
2021/05/18 00:45:52;;;;;;;0.9;0.9;;;;;;;9.43;99.87305;94871.54;;;;
2021/05/18 00:46:54;;;;;;;0.9;0.9;;;;;;;9.43;99.87305;94871.54;;;;
2021/05/18 00:47:54;;;;;;;0.9;0.9;;;;;;;9.43;99.87305;94871.54;;;;
2021/05/18 00:48:56;;;;;;;0.9;0.9;;;;;;;9.43;99.87305;94871.54;;;;
2021/05/18 00:49:57;;;;;;;0.9;0.9;;;;;;;9.43;99.87305;94871.54;;;;
2021/05/18 00:50:58;;;;;;;0.9;0.9;;;;;;;9.43;99.87305;94871.54;;;;
2021/05/18 00:52:03;;;;;;;0.9;0.9;;;;;;;9.43;99.87305;94871.54;;;;
2021/05/18 00:53:05;;;;;;;0.9;0.9;;;;;;;9.43;99.87305;94871.54;;;;
2021/05/18 00:54:09;;;;;;;0.7;0.7;;;;;;;9.45;99.5918;94875.64;;;;
2021/05/18 00:55:19;;;;;;;0.7;0.7;;;;;;;9.45;99.5918;94875.64;;;;
2021/05/18 00:56:32;;;;;;;0.7;0.7;;;;;;;9.45;99.5918;94875.64;;;;
2021/05/18 00:58:39;;;;;;;0.7;0.7;;;;;;;9.45;99.5918;94875.64;;;;
2021/05/18 00:59:39;;;;;;;0.7;0.7;;;;;;;9.45;99.5918;94875.64;;;;
2021/05/18 01:00:40;;;;;;;0.7;0.7;;;;;;;9.45;99.5918;94875.64;;;;
2021/05/18 01:01:41;;;;;;;0.7;0.7;;;;;;;9.45;99.5918;94875.64;;;;
2021/05/18 01:02:42;;;;;;;0.7;0.7;;;;;;;9.45;99.5918;94875.64;;;;
2021/05/18 01:03:45;;;;;;;0.7;0.7;;;;;;;9.45;99.5918;94875.64;;;;
2021/05/18 01:04:47;;;;;;;0.8;0.8;;;;;;;9.39;99.33496;94896.38;;;;
2021/05/18 01:06:22;;;;;;;0.8;0.8;;;;;;;9.39;99.33496;94896.38;;;;
2021/05/18 01:07:25;;;;;;;0.8;0.8;;;;;;;9.39;99.33496;94896.38;;;;
2021/05/18 01:08:25;;;;;;;0.8;0.8;;;;;;;9.39;99.33496;94896.38;;;;
2021/05/18 01:09:26;;;;;;;0.8;0.8;;;;;;;9.39;99.33496;94896.38;;;;
2021/05/18 01:10:26;;;;;;;0.8;0.8;;;;;;;9.39;99.33496;94896.38;;;;
2021/05/18 01:11:27;;;;;;;0.8;0.8;;;;;;;9.39;99.33496;94896.38;;;;
2021/05/18 01:12:30;;;;;;;0.8;0.8;;;;;;;9.39;99.33496;94896.38;;;;
2021/05/18 01:13:32;;;;;;;0.8;0.8;;;;;;;9.39;99.33496;94896.38;;;;
2021/05/18 01:14:34;;;;;;;1.25;0.8;;;;;;;9.34;99.51465;94887.68;;;;
2021/05/18 01:15:34;;;;;;;1.25;0.8;;;;;;;9.34;99.51465;94887.68;;;;
2021/05/18 01:16:35;;;;;;;1.25;0.8;;;;;;;9.34;99.51465;94887.68;;;;
2021/05/18 01:17:38;;;;;;;1.25;0.8;;;;;;;9.34;99.51465;94887.68;;;;
2021/05/18 01:18:40;;;;;;;1.25;0.8;;;;;;;9.34;99.51465;94887.68;;;;
2021/05/18 01:19:43;;;;;;;1.25;0.8;;;;;;;9.34;99.51465;94887.68;;;;
2021/05/18 01:20:43;;;;;;;1.25;0.8;;;;;;;9.34;99.51465;94887.68;;;;
2021/05/18 01:21:54;;;;;;;1.25;0.8;;;;;;;9.34;99.51465;94887.68;;;;
2021/05/18 01:22:55;;;;;;;1.25;0.8;;;;;;;9.34;99.51465;94887.68;;;;
2021/05/18 01:23:56;;;;;;;1.25;0.8;;;;;;;9.34;99.51465;94887.68;;;;
2021/05/18 01:24:56;;;;;;;1.25;0.8;;;;;;;9.34;99.51465;94887.68;;;;
2021/05/18 01:25:57;;;;;;;3.05;0.8;;;;;;;9.29;99.67969;94898.46;;;;
2021/05/18 01:26:57;;;;;;;3.05;0.8;;;;;;;9.29;99.67969;94898.46;;;;
2021/05/18 01:27:58;;;;;;;3.05;0.8;;;;;;;9.29;99.67969;94898.46;;;;
2021/05/18 01:28:58;;;;;;;3.05;0.8;;;;;;;9.29;99.67969;94898.46;;;;
2021/05/18 01:29:59;;;;;;;3.05;0.8;;;;;;;9.29;99.67969;94898.46;;;;
2021/05/18 01:31:00;;;;;;;3.05;0.8;;;;;;;9.29;99.67969;94898.46;;;;
2021/05/18 01:32:06;;;;;;;3.05;0.8;;;;;;;9.29;99.67969;94898.46;;;;
2021/05/18 01:33:06;;;;;;;3.05;0.8;;;;;;;9.29;99.67969;94898.46;;;;
2021/05/18 01:34:07;;;;;;;3.05;0.8;;;;;;;9.29;99.67969;94898.46;;;;
2021/05/18 01:35:08;;;;;;;3.05;0.8;;;;;;;9.29;99.67969;94898.46;;;;
2021/05/18 01:36:12;;;;;;;1.4;0.7;;;;;;;9.25;99.61035;94892.74;;;;
2021/05/18 01:37:12;;;;;;;1.4;0.7;;;;;;;9.25;99.61035;94892.74;;;;
2021/05/18 01:38:16;;;;;;;1.4;0.7;;;;;;;9.25;99.61035;94892.74;;;;
2021/05/18 01:44:31;;;;;;;1.4;0.7;;;;;;;9.25;99.61035;94892.74;;;;
2021/05/18 01:45:32;;;;;;;1.4;0.7;;;;;;;9.25;99.61035;94892.74;;;;
2021/05/18 01:46:34;;;;;;;0.7;0.7;;;;;;;9.25;99.62891;94895.94;;;;
2021/05/18 01:47:35;;;;;;;0.7;0.7;;;;;;;9.25;99.62891;94895.94;;;;
2021/05/18 01:48:36;;;;;;;0.7;0.7;;;;;;;9.25;99.62891;94895.94;;;;
2021/05/18 01:49:37;;;;;;;0.7;0.7;;;;;;;9.25;99.62891;94895.94;;;;
2021/05/18 01:50:38;;;;;;;0.7;0.7;;;;;;;9.25;99.62891;94895.94;;;;
2021/05/18 01:51:40;;;;;;;0.7;0.7;;;;;;;9.25;99.62891;94895.94;;;;
2021/05/18 01:52:43;;;;;;;0.7;0.7;;;;;;;9.25;99.62891;94895.94;;;;
2021/05/18 01:53:43;;;;;;;0.7;0.7;;;;;;;9.25;99.62891;94895.94;;;;
2021/05/18 01:54:44;;;;;;;0.7;0.7;;;;;;;9.25;99.62891;94895.94;;;;
2021/05/18 01:55:54;;;;;;;0.7;0.7;;;;;;;9.25;99.62891;94895.94;;;;
2021/05/18 01:57:15;;;;;;;0.7;0.7;;;;;;;9.25;99.62891;94895.94;;;;
2021/05/18 01:58:16;;;;;;;1;0.75;;;;;;;9.31;99.66797;94909.72;;;;
2021/05/18 01:59:18;;;;;;;1;0.75;;;;;;;9.31;99.66797;94909.72;;;;
2021/05/18 02:00:21;;;;;;;1;0.75;;;;;;;9.31;99.66797;94909.72;;;;
2021/05/18 02:01:25;;;;;;;1;0.75;;;;;;;9.31;99.66797;94909.72;;;;
2021/05/18 02:02:25;;;;;;;1;0.75;;;;;;;9.31;99.66797;94909.72;;;;
2021/05/18 02:03:26;;;;;;;1;0.75;;;;;;;9.31;99.66797;94909.72;;;;
2021/05/18 02:04:28;;;;;;;1;0.75;;;;;;;9.31;99.66797;94909.72;;;;
2021/05/18 02:05:31;;;;;;;1;0.75;;;;;;;9.31;99.66797;94909.72;;;;
2021/05/18 02:06:35;;;;;;;1;0.75;;;;;;;9.31;99.66797;94909.72;;;;
2021/05/18 02:07:36;;;;;;;1;0.75;;;;;;;9.31;99.66797;94909.72;;;;
2021/05/18 02:08:38;;;;;;;1.1;0.8;;;;;;;9.39;99.3877;94920.25;;;;
2021/05/18 02:09:39;;;;;;;1.1;0.8;;;;;;;9.39;99.3877;94920.25;;;;
2021/05/18 02:10:40;;;;;;;1.1;0.8;;;;;;;9.39;99.3877;94920.25;;;;
2021/05/18 02:11:41;;;;;;;1.1;0.8;;;;;;;9.39;99.3877;94920.25;;;;
2021/05/18 02:12:42;;;;;;;1.1;0.8;;;;;;;9.39;99.3877;94920.25;;;;
2021/05/18 02:13:46;;;;;;;1.1;0.8;;;;;;;9.39;99.3877;94920.25;;;;
2021/05/18 02:14:50;;;;;;;1.1;0.8;;;;;;;9.39;99.3877;94920.25;;;;
2021/05/18 02:15:56;;;;;;;1.1;0.8;;;;;;;9.39;99.3877;94920.25;;;;
2021/05/18 02:17:01;;;;;;;1.1;0.8;;;;;;;9.39;99.3877;94920.25;;;;
2021/05/18 02:18:16;;;;;;;1.1;0.8;;;;;;;9.39;99.3877;94920.25;;;;
2021/05/18 02:19:29;;;;;;;2.2;0.75;;;;;;;9.41;99.18066;94921.63;;;;
2021/05/18 02:20:46;;;;;;;2.2;0.75;;;;;;;9.41;99.18066;94921.63;;;;
2021/05/18 02:22:02;;;;;;;2.2;0.75;;;;;;;9.41;99.18066;94921.63;;;;
2021/05/18 02:28:12;;;;;;;2.2;0.75;;;;;;;9.41;99.18066;94921.63;;;;
2021/05/18 02:29:14;;;;;;;3;1.5;;;;;;;9.36;99.28613;94922.88;;;;
2021/05/18 02:30:15;;;;;;;3;1.5;;;;;;;9.36;99.28613;94922.88;;;;
2021/05/18 02:31:18;;;;;;;3;1.5;;;;;;;9.36;99.28613;94922.88;;;;
2021/05/18 02:32:19;;;;;;;3;1.5;;;;;;;9.36;99.28613;94922.88;;;;
2021/05/18 02:33:20;;;;;;;3;1.5;;;;;;;9.36;99.28613;94922.88;;;;
2021/05/18 02:34:21;;;;;;;3;1.5;;;;;;;9.36;99.28613;94922.88;;;;
2021/05/18 02:35:22;;;;;;;3;1.5;;;;;;;9.36;99.28613;94922.88;;;;
2021/05/18 02:36:22;;;;;;;3;1.5;;;;;;;9.36;99.28613;94922.88;;;;
2021/05/18 02:37:25;;;;;;;3;1.5;;;;;;;9.36;99.28613;94922.88;;;;
2021/05/18 02:38:26;;;;;;;3;1.5;;;;;;;9.36;99.28613;94922.88;;;;
2021/05/18 02:39:26;;;;;;;3;1.5;;;;;;;9.36;99.28613;94922.88;;;;
2021/05/18 02:40:29;;;;;;;1;0.9;;;;;;;9.36;99.55078;94922.88;;;;
2021/05/18 02:41:29;;;;;;;1;0.9;;;;;;;9.36;99.55078;94922.88;;;;
2021/05/18 02:42:30;;;;;;;1;0.9;;;;;;;9.36;99.55078;94922.88;;;;
2021/05/18 02:43:38;;;;;;;1;0.9;;;;;;;9.36;99.55078;94922.88;;;;
2021/05/18 02:44:43;;;;;;;1;0.9;;;;;;;9.36;99.55078;94922.88;;;;
2021/05/18 02:45:54;;;;;;;1;0.9;;;;;;;9.36;99.55078;94922.88;;;;
2021/05/18 02:52:06;;;;;;;2.55;2;;;;;;;9.31;99.64648;94921.84;;;;
2021/05/18 02:53:07;;;;;;;2.55;2;;;;;;;9.31;99.64648;94921.84;;;;
2021/05/18 02:54:08;;;;;;;2.55;2;;;;;;;9.31;99.64648;94921.84;;;;
2021/05/18 02:55:12;;;;;;;2.55;2;;;;;;;9.31;99.64648;94921.84;;;;
2021/05/18 02:56:22;;;;;;;2.55;2;;;;;;;9.31;99.64648;94921.84;;;;
2021/05/18 02:57:32;;;;;;;2.55;2;;;;;;;9.31;99.64648;94921.84;;;;
2021/05/18 02:58:35;;;;;;;2.55;2;;;;;;;9.31;99.64648;94921.84;;;;
2021/05/18 02:59:36;;;;;;;2.55;2;;;;;;;9.31;99.64648;94921.84;;;;
2021/05/18 03:00:36;;;;;;;2.55;2;;;;;;;9.31;99.64648;94921.84;;;;
2021/05/18 03:01:37;;;;;;;1;0.9;;;;;;;9.37;99.78613;94920.08;;;;
2021/05/18 03:02:39;;;;;;;1;0.9;;;;;;;9.37;99.78613;94920.08;;;;
2021/05/18 03:03:39;;;;;;;1;0.9;;;;;;;9.37;99.78613;94920.08;;;;
2021/05/18 03:04:40;;;;;;;1;0.9;;;;;;;9.37;99.78613;94920.08;;;;
2021/05/18 03:05:40;;;;;;;1;0.9;;;;;;;9.37;99.78613;94920.08;;;;
2021/05/18 03:06:41;;;;;;;1;0.9;;;;;;;9.37;99.78613;94920.08;;;;
2021/05/18 03:07:41;;;;;;;1;0.9;;;;;;;9.37;99.78613;94920.08;;;;
2021/05/18 03:08:42;;;;;;;1;0.9;;;;;;;9.37;99.78613;94920.08;;;;
2021/05/18 03:09:43;;;;;;;1;0.9;;;;;;;9.37;99.78613;94920.08;;;;
2021/05/18 03:10:43;;;;;;;1;0.9;;;;;;;9.37;99.78613;94920.08;;;;
2021/05/18 03:11:44;;;;;;;1;0.9;;;;;;;9.37;99.78613;94920.08;;;;
2021/05/18 03:12:50;;;;;;;0.8;0.8;;;;;;;9.41;99.70117;94926.09;;;;
2021/05/18 03:13:51;;;;;;;0.8;0.8;;;;;;;9.41;99.70117;94926.09;;;;
2021/05/18 03:14:51;;;;;;;0.8;0.8;;;;;;;9.41;99.70117;94926.09;;;;
2021/05/18 03:15:52;;;;;;;0.8;0.8;;;;;;;9.41;99.70117;94926.09;;;;
2021/05/18 03:16:52;;;;;;;0.8;0.8;;;;;;;9.41;99.70117;94926.09;;;;
2021/05/18 03:17:53;;;;;;;0.8;0.8;;;;;;;9.41;99.70117;94926.09;;;;
2021/05/18 03:18:54;;;;;;;0.8;0.8;;;;;;;9.41;99.70117;94926.09;;;;
2021/05/18 03:19:54;;;;;;;0.8;0.8;;;;;;;9.41;99.70117;94926.09;;;;
2021/05/18 03:20:55;;;;;;;0.8;0.8;;;;;;;9.41;99.70117;94926.09;;;;
2021/05/18 03:21:55;;;;;;;0.8;0.8;;;;;;;9.41;99.70117;94926.09;;;;
2021/05/18 03:22:56;;;;;;;1.35;0.8;;;;;;;9.29;99.69238;94926.23;;;;
2021/05/18 03:23:56;;;;;;;1.35;0.8;;;;;;;9.29;99.69238;94926.23;;;;
2021/05/18 03:24:57;;;;;;;1.35;0.8;;;;;;;9.29;99.69238;94926.23;;;;
2021/05/18 03:25:58;;;;;;;1.35;0.8;;;;;;;9.29;99.69238;94926.23;;;;
2021/05/18 03:26:58;;;;;;;1.35;0.8;;;;;;;9.29;99.69238;94926.23;;;;
2021/05/18 03:27:59;;;;;;;1.35;0.8;;;;;;;9.29;99.69238;94926.23;;;;
2021/05/18 03:29:02;;;;;;;1.35;0.8;;;;;;;9.29;99.69238;94926.23;;;;
2021/05/18 03:30:16;;;;;;;1.35;0.8;;;;;;;9.29;99.69238;94926.23;;;;
2021/05/18 03:36:29;;;;;;;0.95;0.8;;;;;;;9.11;100;94928.64;;;;
2021/05/18 03:37:38;;;;;;;0.95;0.8;;;;;;;9.11;100;94928.64;;;;
2021/05/18 03:38:42;;;;;;;0.95;0.8;;;;;;;9.11;100;94928.64;;;;
2021/05/18 03:39:44;;;;;;;0.95;0.8;;;;;;;9.11;100;94928.64;;;;
2021/05/18 03:40:51;;;;;;;0.95;0.8;;;;;;;9.11;100;94928.64;;;;
2021/05/18 03:41:55;;;;;;;0.95;0.8;;;;;;;9.11;100;94928.64;;;;
2021/05/18 03:43:04;;;;;;;0.95;0.8;;;;;;;9.11;100;94928.64;;;;
2021/05/18 03:44:13;;;;;;;1.3;0.85;;;;;;;8.92;100;94932.93;;;;
2021/05/18 03:45:17;;;;;;;1.3;0.85;;;;;;;8.92;100;94932.93;;;;
2021/05/18 03:52:38;;;;;;;1.3;0.85;;;;;;;8.92;100;94932.93;;;;
2021/05/18 03:53:45;;;;;;;1.3;0.85;;;;;;;8.92;100;94932.93;;;;
2021/05/18 03:54:54;;;;;;;0.95;0.85;;;;;;;8.85;100;94932.23;;;;
2021/05/18 04:11:50;;;;;;;0.9;0.8;;;;;;;8.93;100;94935.39;;;;
2021/05/18 04:12:52;;;;;;;0.9;0.8;;;;;;;8.93;100;94935.39;;;;
2021/05/18 04:19:06;;;;;;;1.55;0.8;;;;;;;9.16;100;94938.59;;;;
2021/05/18 04:20:16;;;;;;;1.55;0.8;;;;;;;9.16;100;94938.59;;;;
2021/05/18 04:21:25;;;;;;;1.55;0.8;;;;;;;9.16;100;94938.59;;;;
2021/05/18 04:22:34;;;;;;;1.55;0.8;;;;;;;9.16;100;94938.59;;;;
2021/05/18 04:23:45;;;;;;;1.55;0.8;;;;;;;9.16;100;94938.59;;;;
2021/05/18 04:40:57;;;;;;;0.85;0.7;;;;;;;9.58;100;94931.98;;;;
2021/05/18 04:43:28;;;;;;;0.85;0.7;;;;;;;9.58;100;94931.98;;;;
2021/05/18 04:49:57;;;;;;;1.5;0.8;;;;;;;9.66;99.81934;94960.03;;;;
2021/05/18 04:51:08;;;;;;;1.5;0.8;;;;;;;9.66;99.81934;94960.03;;;;
2021/05/18 04:52:12;;;;;;;1.5;0.8;;;;;;;9.66;99.81934;94960.03;;;;
2021/05/18 04:53:18;;;;;;;1.5;0.8;;;;;;;9.66;99.81934;94960.03;;;;
2021/05/18 04:54:52;;;;;;;1.5;0.8;;;;;;;9.66;99.81934;94960.03;;;;
2021/05/18 05:01:12;;;;;;;1.5;0.9;;;;;;;9.69;100;94983.28;;;;
2021/05/18 05:02:46;;;;;;;1.5;0.9;;;;;;;9.69;100;94983.28;;;;
2021/05/18 05:04:04;;;;;;;1.5;0.9;;;;;;;9.69;100;94983.28;;;;
2021/05/18 05:06:16;;;;;;;1.5;0.9;;;;;;;9.69;100;94983.28;;;;
2021/05/18 05:07:17;;;;;;;1.5;0.9;;;;;;;9.69;100;94983.28;;;;
2021/05/18 05:08:20;;;;;;;1.5;0.9;;;;;;;9.69;100;94983.28;;;;
2021/05/18 05:09:24;;;;;;;0.8;0.7;;;;;;;10.24;99.77148;94980.38;;;;
2021/05/18 05:12:18;;;;;;;0.8;0.7;;;;;;;10.24;99.77148;94980.38;;;;
2021/05/18 05:14:24;;;;;;;0.8;0.7;;;;;;;10.24;99.77148;94980.38;;;;
2021/05/18 05:15:25;;;;;;;0.8;0.7;;;;;;;10.24;99.77148;94980.38;;;;
2021/05/18 05:16:26;;;;;;;0.8;0.7;;;;;;;10.24;99.77148;94980.38;;;;
2021/05/18 05:17:26;;;;;;;0.8;0.7;;;;;;;10.24;99.77148;94980.38;;;;
2021/05/18 05:18:27;;;;;;;0.8;0.7;;;;;;;10.24;99.77148;94980.38;;;;
2021/05/18 05:19:28;;;;;;;0.8;0.7;;;;;;;10.24;99.77148;94980.38;;;;
2021/05/18 05:20:29;;;;;;;0.7;0.7;;;;;;;10.53;98.85059;94991.56;;;;
2021/05/18 05:21:32;;;;;;;0.7;0.7;;;;;;;10.53;98.85059;94991.56;;;;
2021/05/18 05:22:32;;;;;;;0.7;0.7;;;;;;;10.53;98.85059;94991.56;;;;
2021/05/18 05:23:33;;;;;;;0.7;0.7;;;;;;;10.53;98.85059;94991.56;;;;
2021/05/18 05:24:33;;;;;;;0.7;0.7;;;;;;;10.53;98.85059;94991.56;;;;
2021/05/18 05:25:34;;;;;;;0.7;0.7;;;;;;;10.53;98.85059;94991.56;;;;
2021/05/18 05:26:35;;;;;;;0.7;0.7;;;;;;;10.53;98.85059;94991.56;;;;
2021/05/18 05:27:36;;;;;;;0.7;0.7;;;;;;;10.53;98.85059;94991.56;;;;
2021/05/18 05:28:37;;;;;;;0.7;0.7;;;;;;;10.53;98.85059;94991.56;;;;
2021/05/18 05:29:38;;;;;;;0.7;0.7;;;;;;;10.53;98.85059;94991.56;;;;
2021/05/18 05:30:38;;;;;;;0.8;0.75;;;;;;;10.66;98.23242;95011;;;;
2021/05/18 05:31:39;;;;;;;0.8;0.75;;;;;;;10.66;98.23242;95011;;;;
2021/05/18 05:32:40;;;;;;;0.8;0.75;;;;;;;10.66;98.23242;95011;;;;
2021/05/18 05:33:41;;;;;;;0.8;0.75;;;;;;;10.66;98.23242;95011;;;;
2021/05/18 05:34:41;;;;;;;0.8;0.75;;;;;;;10.66;98.23242;95011;;;;
2021/05/18 05:35:42;;;;;;;0.8;0.75;;;;;;;10.66;98.23242;95011;;;;
2021/05/18 05:36:42;;;;;;;0.8;0.75;;;;;;;10.66;98.23242;95011;;;;
2021/05/18 05:37:43;;;;;;;0.8;0.75;;;;;;;10.66;98.23242;95011;;;;
2021/05/18 05:38:43;;;;;;;0.8;0.75;;;;;;;10.66;98.23242;95011;;;;
2021/05/18 05:39:44;;;;;;;0.8;0.75;;;;;;;10.66;98.23242;95011;;;;
2021/05/18 05:40:45;;;;;;;0.8;0.75;;;;;;;10.66;98.23242;95011;;;;
2021/05/18 05:41:45;;;;;;;1.2;0.7;;;;;;;10.75;98.59375;95014.94;;;;
2021/05/18 05:42:46;;;;;;;1.2;0.7;;;;;;;10.75;98.59375;95014.94;;;;
2021/05/18 05:43:47;;;;;;;1.2;0.7;;;;;;;10.75;98.59375;95014.94;;;;
2021/05/18 05:44:47;;;;;;;1.2;0.7;;;;;;;10.75;98.59375;95014.94;;;;
2021/05/18 05:45:49;;;;;;;1.2;0.7;;;;;;;10.75;98.59375;95014.94;;;;
2021/05/18 05:46:50;;;;;;;1.2;0.7;;;;;;;10.75;98.59375;95014.94;;;;
2021/05/18 05:47:51;;;;;;;1.2;0.7;;;;;;;10.75;98.59375;95014.94;;;;
2021/05/18 05:48:53;;;;;;;1.2;0.7;;;;;;;10.75;98.59375;95014.94;;;;
2021/05/18 05:49:55;;;;;;;1.2;0.7;;;;;;;10.75;98.59375;95014.94;;;;
2021/05/18 05:50:55;;;;;;;1.2;0.7;;;;;;;10.75;98.59375;95014.94;;;;
2021/05/18 05:51:56;;;;;;;0.8;0.8;;;;;;;10.69;98.39844;95029.92;;;;
2021/05/18 05:52:56;;;;;;;0.8;0.8;;;;;;;10.69;98.39844;95029.92;;;;
2021/05/18 05:53:58;;;;;;;0.8;0.8;;;;;;;10.69;98.39844;95029.92;;;;
2021/05/18 05:54:59;;;;;;;0.8;0.8;;;;;;;10.69;98.39844;95029.92;;;;
2021/05/18 05:56:00;;;;;;;0.8;0.8;;;;;;;10.69;98.39844;95029.92;;;;
2021/05/18 05:57:00;;;;;;;0.8;0.8;;;;;;;10.69;98.39844;95029.92;;;;
2021/05/18 05:58:01;;;;;;;0.8;0.8;;;;;;;10.69;98.39844;95029.92;;;;
2021/05/18 05:59:04;;;;;;;0.8;0.8;;;;;;;10.69;98.39844;95029.92;;;;
2021/05/18 06:00:05;;;;;;;0.8;0.8;;;;;;;10.69;98.39844;95029.92;;;;
2021/05/18 06:01:09;;;;;;;0.8;0.8;;;;;;;10.69;98.39844;95029.92;;;;
2021/05/18 06:02:10;;;;;;;0.8;0.8;;;;;;;10.69;98.39844;95029.92;;;;
2021/05/18 06:03:10;;;;;;;0.75;0.75;;;;;;;10.71;98.3916;95034.97;;;;
2021/05/18 06:04:11;;;;;;;0.75;0.75;;;;;;;10.71;98.3916;95034.97;;;;
2021/05/18 06:05:12;;;;;;;0.75;0.75;;;;;;;10.71;98.3916;95034.97;;;;
2021/05/18 06:06:12;;;;;;;0.75;0.75;;;;;;;10.71;98.3916;95034.97;;;;
2021/05/18 06:07:13;;;;;;;0.75;0.75;;;;;;;10.71;98.3916;95034.97;;;;
2021/05/18 06:08:13;;;;;;;0.75;0.75;;;;;;;10.71;98.3916;95034.97;;;;
2021/05/18 06:09:14;;;;;;;0.75;0.75;;;;;;;10.71;98.3916;95034.97;;;;
2021/05/18 06:10:17;;;;;;;0.75;0.75;;;;;;;10.71;98.3916;95034.97;;;;
2021/05/18 06:11:21;;;;;;;0.75;0.75;;;;;;;10.71;98.3916;95034.97;;;;
2021/05/18 06:12:33;;;;;;;0.75;0.75;;;;;;;10.71;98.3916;95034.97;;;;
2021/05/18 06:13:58;;;;;;;0.8;0.8;;;;;;;10.84;98.2168;95051.4;;;;
2021/05/18 06:15:24;;;;;;;0.8;0.8;;;;;;;10.84;98.2168;95051.4;;;;
2021/05/18 06:16:48;;;;;;;0.8;0.8;;;;;;;10.84;98.2168;95051.4;;;;
2021/05/18 06:18:10;;;;;;;0.8;0.8;;;;;;;10.84;98.2168;95051.4;;;;
2021/05/18 06:35:14;;;;;;;0.6;0.6;;;;;;;11.2;96.60742;95070.68;;;;
2021/05/18 06:37:28;;;;;;;0.6;0.6;;;;;;;11.2;96.60742;95070.68;;;;
2021/05/18 06:43:55;;;;;;;0.6;0.6;;;;;;;11.2;96.60742;95070.68;;;;
2021/05/18 06:50:21;;;;;;;0.85;0.8;;;;;;;11.6;96.69434;95078.22;;;;
2021/05/18 06:51:21;;;;;;;0.85;0.8;;;;;;;11.6;96.69434;95078.22;;;;
2021/05/18 06:52:22;;;;;;;0.85;0.8;;;;;;;11.6;96.69434;95078.22;;;;
2021/05/18 06:53:23;;;;;;;0.85;0.8;;;;;;;11.6;96.69434;95078.22;;;;
2021/05/18 06:54:23;;;;;;;0.85;0.8;;;;;;;11.6;96.69434;95078.22;;;;
2021/05/18 06:55:26;;;;;;;0.85;0.8;;;;;;;11.6;96.69434;95078.22;;;;
2021/05/18 06:56:34;;;;;;;1.45;0.8;;;;;;;12.01;95.4209;95088.08;;;;
2021/05/18 06:57:35;;;;;;;1.45;0.8;;;;;;;12.01;95.4209;95088.08;;;;
2021/05/18 07:00:07;;;;;;;1.45;0.8;;;;;;;12.01;95.4209;95088.08;;;;
2021/05/18 07:01:09;;;;;;;1.45;0.8;;;;;;;12.01;95.4209;95088.08;;;;
2021/05/18 07:02:10;;;;;;;1.45;0.8;;;;;;;12.01;95.4209;95088.08;;;;
2021/05/18 07:03:11;;;;;;;1.45;0.8;;;;;;;12.01;95.4209;95088.08;;;;
2021/05/18 07:04:14;;;;;;;1.45;0.8;;;;;;;12.01;95.4209;95088.08;;;;
2021/05/18 07:05:18;;;;;;;1.45;0.8;;;;;;;12.01;95.4209;95088.08;;;;
2021/05/18 07:06:29;;;;;;;1.45;0.8;;;;;;;12.01;95.4209;95088.08;;;;
2021/05/18 07:07:33;;;;;;;0.9;0.9;;;;;;;12.35;95.60059;95083.8;;;;
2021/05/18 07:09:03;;;;;;;0.9;0.9;;;;;;;12.35;95.60059;95083.8;;;;
2021/05/18 07:10:05;;;;;;;0.9;0.9;;;;;;;12.35;95.60059;95083.8;;;;
2021/05/18 07:11:07;;;;;;;0.9;0.9;;;;;;;12.35;95.60059;95083.8;;;;
2021/05/18 07:12:08;;;;;;;0.9;0.9;;;;;;;12.35;95.60059;95083.8;;;;
2021/05/18 07:13:09;;;;;;;0.9;0.9;;;;;;;12.35;95.60059;95083.8;;;;
2021/05/18 07:14:10;;;;;;;0.9;0.9;;;;;;;12.35;95.60059;95083.8;;;;
2021/05/18 07:15:11;;;;;;;0.9;0.9;;;;;;;12.35;95.60059;95083.8;;;;
2021/05/18 07:16:13;;;;;;;0.9;0.9;;;;;;;12.35;95.60059;95083.8;;;;
2021/05/18 07:17:14;;;;;;;1.7;1.3;;;;;;;12.43;95.0918;95086.19;;;;
2021/05/18 07:18:14;;;;;;;1.7;1.3;;;;;;;12.43;95.0918;95086.19;;;;
2021/05/18 07:19:15;;;;;;;1.7;1.3;;;;;;;12.43;95.0918;95086.19;;;;
2021/05/18 07:20:15;;;;;;;1.7;1.3;;;;;;;12.43;95.0918;95086.19;;;;
2021/05/18 07:21:16;;;;;;;1.7;1.3;;;;;;;12.43;95.0918;95086.19;;;;
2021/05/18 07:22:17;;;;;;;1.7;1.3;;;;;;;12.43;95.0918;95086.19;;;;
2021/05/18 07:23:21;;;;;;;1.7;1.3;;;;;;;12.43;95.0918;95086.19;;;;
2021/05/18 07:24:25;;;;;;;1.7;1.3;;;;;;;12.43;95.0918;95086.19;;;;
2021/05/18 07:25:25;;;;;;;1.7;1.3;;;;;;;12.43;95.0918;95086.19;;;;
2021/05/18 07:26:26;;;;;;;1.7;1.3;;;;;;;12.43;95.0918;95086.19;;;;
2021/05/18 07:27:28;;;;;;;1.7;1.3;;;;;;;12.43;95.0918;95086.19;;;;
2021/05/18 07:28:31;;;;;;;0.9;0.85;;;;;;;12.24;95.65137;95096.09;;;;
2021/05/18 07:29:32;;;;;;;0.9;0.85;;;;;;;12.24;95.65137;95096.09;;;;
2021/05/18 07:30:32;;;;;;;0.9;0.85;;;;;;;12.24;95.65137;95096.09;;;;
2021/05/18 07:31:34;;;;;;;0.9;0.85;;;;;;;12.24;95.65137;95096.09;;;;
2021/05/18 07:32:34;;;;;;;0.9;0.85;;;;;;;12.24;95.65137;95096.09;;;;
2021/05/18 07:33:35;;;;;;;0.9;0.85;;;;;;;12.24;95.65137;95096.09;;;;
2021/05/18 07:34:35;;;;;;;0.9;0.85;;;;;;;12.24;95.65137;95096.09;;;;
2021/05/18 07:35:36;;;;;;;0.9;0.85;;;;;;;12.24;95.65137;95096.09;;;;
2021/05/18 07:36:36;;;;;;;0.9;0.85;;;;;;;12.24;95.65137;95096.09;;;;
2021/05/18 07:37:37;;;;;;;0.9;0.85;;;;;;;12.24;95.65137;95096.09;;;;
2021/05/18 07:38:38;;;;;;;0.9;0.8;;;;;;;12.53;94.34668;95082.23;;;;
2021/05/18 07:39:41;;;;;;;0.9;0.8;;;;;;;12.53;94.34668;95082.23;;;;
2021/05/18 07:40:42;;;;;;;0.9;0.8;;;;;;;12.53;94.34668;95082.23;;;;
2021/05/18 07:41:43;;;;;;;0.9;0.8;;;;;;;12.53;94.34668;95082.23;;;;
2021/05/18 07:42:43;;;;;;;0.9;0.8;;;;;;;12.53;94.34668;95082.23;;;;
2021/05/18 07:43:44;;;;;;;0.9;0.8;;;;;;;12.53;94.34668;95082.23;;;;
2021/05/18 07:44:44;;;;;;;0.9;0.8;;;;;;;12.53;94.34668;95082.23;;;;
2021/05/18 07:45:49;;;;;;;0.9;0.8;;;;;;;12.53;94.34668;95082.23;;;;
2021/05/18 07:46:51;;;;;;;0.9;0.8;;;;;;;12.53;94.34668;95082.23;;;;
2021/05/18 07:47:52;;;;;;;0.9;0.8;;;;;;;12.53;94.34668;95082.23;;;;
2021/05/18 07:49:13;;;;;;;0.9;0.8;;;;;;;12.53;94.34668;95082.23;;;;
2021/05/18 07:50:19;;;;;;;0.7;0.7;;;;;;;13.33;92.84668;95094.51;;;;
2021/05/18 07:51:32;;;;;;;0.7;0.7;;;;;;;13.33;92.84668;95094.51;;;;
2021/05/18 08:01:15;;;;;;;1.45;0.8;;;;;;;13.07;92.46289;95095.63;;;;
2021/05/18 08:07:34;;;;;;;1.45;0.8;;;;;;;13.07;92.46289;95095.63;;;;
2021/05/18 08:08:34;;;;;;;1.45;0.8;;;;;;;13.07;92.46289;95095.63;;;;
2021/05/18 08:09:40;;;;;;;1.45;0.8;;;;;;;13.07;92.46289;95095.63;;;;
2021/05/18 08:10:47;;;;;;;1.85;0.8;;;;;;;12.84;90.94629;95099.14;;;;
2021/05/18 08:11:48;;;;;;;1.85;0.8;;;;;;;12.84;90.94629;95099.14;;;;
2021/05/18 08:12:49;;;;;;;1.85;0.8;;;;;;;12.84;90.94629;95099.14;;;;
2021/05/18 08:13:49;;;;;;;1.85;0.8;;;;;;;12.84;90.94629;95099.14;;;;
2021/05/18 08:15:04;;;;;;;1.85;0.8;;;;;;;12.84;90.94629;95099.14;;;;
2021/05/18 08:16:45;;;;;;;1.85;0.8;;;;;;;12.84;90.94629;95099.14;;;;
2021/05/18 08:17:51;;;;;;;1.85;0.8;;;;;;;12.84;90.94629;95099.14;;;;
2021/05/18 08:19:16;;;;;;;1.85;0.8;;;;;;;12.84;90.94629;95099.14;;;;
2021/05/18 08:20:31;;;;;;;1.85;0.8;;;;;;;12.84;90.94629;95099.14;;;;
2021/05/18 08:22:29;;;;;;;0.9;0.9;;;;;;;13.1;91.25781;95095.64;;;;
2021/05/18 08:55:29;;;;;;;1.7;0.9;;;;;;;18.93;79.60547;95085.06;;;;
2021/05/18 09:02:19;;;;;;;1.25;0.85;;;;;;;18.8;79.35547;95079.88;;;;
2021/05/18 09:33:13;;;;;;;0.8;0.8;;;;;;;17.82;79.43945;95074.98;;;;
2021/05/18 09:35:13;;;;;;;0.8;0.8;;;;;;;17.82;79.43945;95074.98;;;;
2021/05/18 09:44:22;;;;;;;0.8;0.8;;;;;;;17.82;79.43945;95074.98;;;;
2021/05/18 10:14:25;;;;;;;1;0.9;;;;;;;14.42;80.11621;95131.32;;;;
